Time;durP1;ratioP1;P1;durP2;ratioP2;P2;SDS_P1;SDS_P2;PMS_P1;PMS_P2;Temp;Humidity;BMP_temperature;BMP_pressure;BME280_temperature;BME280_humidity;BME280_pressure;Samples;Min_cycle;Max_cycle;Signal;HPM_P1;HPM_P2
2023/07/15 00:00:23;;;;;;;12.30;3.78;;;;;;;21.72;67.70;100359.28;4978905;28;20035;-73
2023/07/15 00:02:50;;;;;;;5.60;3.60;;;;;;;21.69;67.48;100356.94;4980950;28;20224;-74
2023/07/15 00:05:22;;;;;;;9.25;3.88;;;;;;;21.64;66.62;100353.09;4975415;28;20039;-74
2023/07/15 00:07:48;;;;;;;11.65;4.10;;;;;;;21.77;65.87;100356.00;4982041;28;20031;-74
2023/07/15 00:10:15;;;;;;;7.03;3.67;;;;;;;21.77;66.20;100352.47;4981354;28;20031;-74
2023/07/15 00:12:41;;;;;;;8.10;3.50;;;;;;;21.76;65.92;100346.19;4976920;28;20038;-74
2023/07/15 00:15:10;;;;;;;12.95;3.72;;;;;;;21.84;64.70;100346.13;4984017;28;20042;-75
2023/07/15 00:17:35;;;;;;;9.13;3.50;;;;;;;21.92;65.53;100351.47;4986940;28;20042;-74
2023/07/15 00:20:03;;;;;;;7.60;3.50;;;;;;;21.86;64.15;100335.94;4985731;28;20030;-73
2023/07/15 00:22:29;;;;;;;11.27;3.28;;;;;;;21.93;63.19;100346.88;4990509;28;20068;-73
2023/07/15 00:24:55;;;;;;;7.70;3.30;;;;;;;22.02;63.23;100344.94;4984429;28;20035;-75
2023/07/15 00:27:20;;;;;;;10.15;3.30;;;;;;;21.97;62.25;100337.34;4985759;28;20034;-73
2023/07/15 00:29:46;;;;;;;5.65;2.90;;;;;;;21.99;62.17;100340.75;4988191;28;20055;-75
2023/07/15 00:32:14;;;;;;;6.90;3.40;;;;;;;22.01;63.44;100345.97;4984385;28;20027;-74
2023/07/15 00:34:40;;;;;;;9.20;3.78;;;;;;;22.08;61.32;100341.50;4979450;28;20039;-74
2023/07/15 00:37:06;;;;;;;6.03;3.35;;;;;;;22.09;61.76;100340.47;4990828;28;20043;-75
2023/07/15 00:39:32;;;;;;;7.07;3.42;;;;;;;22.08;62.55;100336.06;4990954;28;20041;-73
2023/07/15 00:42:08;;;;;;;6.93;3.70;;;;;;;22.09;61.10;100333.19;4983616;28;20073;-74
2023/07/15 00:44:33;;;;;;;7.13;3.30;;;;;;;22.13;60.93;100328.22;4993194;28;20043;-75
2023/07/15 00:47:34;;;;;;;7.22;3.35;;;;;;;22.11;60.71;100330.31;4990681;28;20469;-74
2023/07/15 00:50:00;;;;;;;4.97;3.20;;;;;;;22.06;60.92;100336.25;4982233;28;20081;-74
2023/07/15 00:52:26;;;;;;;6.55;3.03;;;;;;;22.00;61.18;100326.13;4982643;28;20039;-74
2023/07/15 00:54:54;;;;;;;8.90;3.42;;;;;;;21.94;60.92;100332.31;4976067;28;20042;-73
2023/07/15 00:57:20;;;;;;;6.38;2.83;;;;;;;21.89;61.52;100334.72;4982772;28;20121;-73
2023/07/15 00:59:47;;;;;;;6.90;2.67;;;;;;;21.87;61.80;100331.34;4970818;28;20144;-74
2023/07/15 01:02:15;;;;;;;7.15;3.33;;;;;;;21.83;61.15;100330.84;4996955;28;20124;-73
2023/07/15 01:04:41;;;;;;;8.50;3.70;;;;;;;21.84;61.38;100327.13;4980613;28;20042;-74
2023/07/15 01:07:07;;;;;;;9.25;3.22;;;;;;;21.91;61.51;100321.81;4985971;28;20070;-73
2023/07/15 01:09:35;;;;;;;6.47;2.78;;;;;;;21.94;61.43;100324.16;4984305;28;20149;-74
2023/07/15 01:12:03;;;;;;;4.40;3.08;;;;;;;21.86;61.35;100318.78;4986356;28;20035;-73
2023/07/15 01:14:28;;;;;;;5.22;2.83;;;;;;;21.89;61.31;100326.59;4991354;28;20026;-73
2023/07/15 01:16:54;;;;;;;5.03;2.97;;;;;;;21.72;62.25;100323.16;4978962;28;20046;-74
2023/07/15 01:19:20;;;;;;;5.72;2.80;;;;;;;21.75;62.14;100328.22;4983362;28;20122;-73
2023/07/15 01:21:50;;;;;;;3.90;2.65;;;;;;;21.72;62.41;100331.28;4987200;28;20072;-74
2023/07/15 01:24:20;;;;;;;8.82;3.22;;;;;;;21.55;63.75;100336.00;4988411;28;20112;-75
2023/07/15 01:26:46;;;;;;;4.93;3.03;;;;;;;21.70;61.83;100327.94;4964750;28;20035;-73
2023/07/15 01:29:13;;;;;;;7.15;3.38;;;;;;;21.82;61.50;100325.63;4981867;28;20249;-72
2023/07/15 01:31:39;;;;;;;8.93;3.00;;;;;;;21.98;61.33;100345.31;4997637;28;20034;-74
2023/07/15 01:34:07;;;;;;;9.32;2.90;;;;;;;22.01;61.97;100330.53;4994410;28;21050;-75
2023/07/15 01:36:33;;;;;;;4.07;2.58;;;;;;;22.07;61.71;100337.94;4986434;28;20034;-74
2023/07/15 01:38:58;;;;;;;7.95;3.38;;;;;;;22.12;61.70;100335.53;4995938;28;20053;-74
2023/07/15 01:41:24;;;;;;;6.82;2.92;;;;;;;22.04;61.97;100329.31;4995488;28;20037;-74
2023/07/15 01:43:50;;;;;;;5.80;2.92;;;;;;;22.10;61.92;100334.03;4991825;28;20574;-75
2023/07/15 01:46:15;;;;;;;10.68;2.90;;;;;;;22.07;61.25;100340.66;4990471;28;20050;-74
2023/07/15 01:48:41;;;;;;;4.20;2.50;;;;;;;22.07;61.13;100337.94;4992486;28;20031;-74
2023/07/15 01:51:06;;;;;;;7.88;3.10;;;;;;;22.00;61.32;100331.56;4990490;28;20073;-75
2023/07/15 01:53:32;;;;;;;6.07;2.38;;;;;;;22.01;60.64;100329.69;4998593;28;20539;-74
2023/07/15 01:55:57;;;;;;;8.68;3.08;;;;;;;22.03;60.57;100331.19;4999758;28;20392;-74
2023/07/15 01:58:25;;;;;;;8.27;2.60;;;;;;;21.90;61.05;100329.09;4981843;28;20042;-75
2023/07/15 02:00:50;;;;;;;9.10;3.45;;;;;;;21.83;61.50;100327.28;4992357;28;20061;-76
2023/07/15 02:03:16;;;;;;;7.32;2.60;;;;;;;21.73;63.10;100331.09;5000257;28;20046;-74
2023/07/15 02:05:42;;;;;;;6.85;3.17;;;;;;;21.68;63.13;100319.09;5014232;28;20629;-73
2023/07/15 02:08:08;;;;;;;4.47;2.55;;;;;;;21.60;63.79;100317.31;4987789;28;20067;-74
2023/07/15 02:10:33;;;;;;;6.00;2.55;;;;;;;21.45;64.15;100313.69;4988409;28;20380;-74
2023/07/15 02:12:59;;;;;;;4.25;2.60;;;;;;;21.42;63.62;100316.75;4995648;28;21077;-74
2023/07/15 02:15:25;;;;;;;6.72;2.50;;;;;;;21.39;64.58;100315.28;4986926;28;20438;-73
2023/07/15 02:17:50;;;;;;;6.82;2.67;;;;;;;21.34;64.72;100322.25;4987588;28;20032;-74
2023/07/15 02:20:16;;;;;;;8.32;3.17;;;;;;;21.25;65.95;100313.31;4978198;28;20042;-74
2023/07/15 02:22:42;;;;;;;5.13;2.40;;;;;;;21.21;66.66;100325.53;5001813;28;20165;-74
2023/07/15 02:25:09;;;;;;;6.85;3.47;;;;;;;21.16;66.50;100325.22;4980562;28;20051;-72
2023/07/15 02:27:35;;;;;;;4.90;3.10;;;;;;;21.05;67.56;100325.63;4977716;28;20118;-76
2023/07/15 02:30:00;;;;;;;7.82;3.30;;;;;;;20.94;67.78;100321.44;4962074;28;20050;-75
2023/07/15 02:32:40;;;;;;;7.80;3.30;;;;;;;21.01;68.42;100314.28;4979361;28;20418;-74
2023/07/15 02:35:10;;;;;;;7.07;2.88;;;;;;;20.92;68.74;100329.72;4988795;28;20053;-73
2023/07/15 02:37:43;;;;;;;7.22;2.95;;;;;;;20.84;67.87;100321.66;4985535;28;20034;-73
2023/07/15 02:40:10;;;;;;;5.63;2.60;;;;;;;20.85;69.50;100323.34;4986359;28;20085;-74
2023/07/15 02:42:36;;;;;;;8.68;2.67;;;;;;;20.75;70.26;100327.28;4986706;28;20049;-72
2023/07/15 02:45:05;;;;;;;12.00;3.00;;;;;;;20.75;69.01;100328.13;4976855;28;20043;-73
2023/07/15 02:47:32;;;;;;;8.60;2.70;;;;;;;20.72;69.27;100328.47;4998327;28;20135;-73
2023/07/15 02:50:00;;;;;;;8.07;3.30;;;;;;;20.71;69.89;100323.25;4973557;28;20046;-73
2023/07/15 02:52:26;;;;;;;8.52;2.72;;;;;;;20.83;69.44;100324.53;4973668;28;20074;-73
2023/07/15 02:54:51;;;;;;;4.82;2.97;;;;;;;20.76;68.31;100323.56;4997165;28;20108;-73
2023/07/15 02:57:17;;;;;;;6.22;2.90;;;;;;;20.76;69.31;100337.09;4988837;28;20139;-74
2023/07/15 02:59:43;;;;;;;5.53;2.63;;;;;;;20.68;69.51;100338.84;4972412;28;20039;-73
2023/07/15 03:02:10;;;;;;;5.65;3.15;;;;;;;20.54;69.96;100336.84;4990464;28;20889;-73
2023/07/15 03:04:37;;;;;;;5.45;2.92;;;;;;;20.63;69.40;100335.81;4978063;28;20035;-74
2023/07/15 03:07:03;;;;;;;4.18;2.65;;;;;;;20.60;69.65;100340.72;4986944;28;20121;-73
2023/07/15 03:09:28;;;;;;;5.78;2.70;;;;;;;20.64;69.45;100351.03;4983045;28;20035;-73
2023/07/15 03:11:54;;;;;;;5.13;2.42;;;;;;;20.67;69.58;100339.84;4982981;28;20982;-74
2023/07/15 03:14:19;;;;;;;8.35;2.95;;;;;;;20.61;69.37;100339.69;4992326;28;20065;-73
2023/07/15 03:16:45;;;;;;;3.90;2.78;;;;;;;20.61;69.33;100339.69;4986587;28;20042;-73
2023/07/15 03:19:12;;;;;;;5.63;3.00;;;;;;;20.60;69.91;100349.69;4987673;28;20041;-73
2023/07/15 03:21:38;;;;;;;7.00;3.03;;;;;;;20.51;69.92;100348.03;5003214;28;20038;-73
2023/07/15 03:24:05;;;;;;;6.53;3.10;;;;;;;20.59;69.92;100345.31;4996257;28;20042;-73
2023/07/15 03:26:30;;;;;;;4.72;3.25;;;;;;;20.61;69.93;100345.13;4975537;28;20042;-73
2023/07/15 03:28:57;;;;;;;8.90;3.22;;;;;;;20.53;70.23;100351.41;4990082;28;20056;-74
2023/07/15 03:31:23;;;;;;;3.97;2.75;;;;;;;20.46;70.79;100347.66;4980538;28;20026;-74
2023/07/15 03:33:51;;;;;;;7.35;2.90;;;;;;;20.50;70.39;100349.06;4980595;28;20058;-74
2023/07/15 03:36:17;;;;;;;8.15;2.88;;;;;;;20.53;71.42;100347.84;4977560;28;20102;-76
2023/07/15 03:38:43;;;;;;;5.43;3.05;;;;;;;20.56;70.64;100342.94;4995075;28;20030;-74
2023/07/15 03:41:08;;;;;;;7.57;2.90;;;;;;;20.55;71.49;100349.38;4990169;28;20164;-75
2023/07/15 03:43:34;;;;;;;7.57;3.00;;;;;;;20.33;72.85;100340.09;4985072;28;20058;-75
2023/07/15 03:46:00;;;;;;;7.35;3.20;;;;;;;20.53;72.33;100335.13;4990281;28;20105;-74
2023/07/15 03:48:25;;;;;;;6.85;3.40;;;;;;;20.54;72.99;100336.00;4985196;28;20039;-73
2023/07/15 03:50:51;;;;;;;6.35;2.85;;;;;;;20.57;73.39;100336.50;4986840;28;20440;-74
2023/07/15 03:53:16;;;;;;;9.90;3.72;;;;;;;20.76;73.54;100335.25;4993717;28;20142;-75
2023/07/15 03:55:42;;;;;;;9.88;3.17;;;;;;;21.15;73.19;100335.22;4980036;28;20980;-74
2023/07/15 03:58:08;;;;;;;7.07;3.17;;;;;;;21.42;72.23;100339.31;4994988;28;20145;-75
2023/07/15 04:00:34;;;;;;;6.05;3.30;;;;;;;21.42;71.92;100339.31;4980125;28;21243;-74
2023/07/15 04:03:00;;;;;;;5.85;3.22;;;;;;;21.58;71.76;100343.78;4975100;28;20084;-73
2023/07/15 04:05:25;;;;;;;3.78;2.88;;;;;;;21.95;72.86;100350.28;4985916;28;20551;-74
2023/07/15 04:07:51;;;;;;;7.88;2.88;;;;;;;22.41;69.30;100340.16;4992890;28;20038;-74
2023/07/15 04:10:17;;;;;;;6.20;2.88;;;;;;;22.69;66.86;100348.53;5000314;28;20034;-75
2023/07/15 04:12:42;;;;;;;8.00;3.38;;;;;;;23.30;65.63;100337.38;4999777;28;20118;-74
2023/07/15 04:15:08;;;;;;;3.92;3.08;;;;;;;23.61;64.85;100338.97;4987315;28;20243;-75
2023/07/15 04:17:34;;;;;;;6.55;3.33;;;;;;;24.22;63.61;100340.13;4982283;28;20026;-74
2023/07/15 04:19:59;;;;;;;5.13;2.83;;;;;;;24.87;61.09;100332.56;4988409;28;20742;-74
2023/07/15 04:22:25;;;;;;;3.67;2.97;;;;;;;25.46;59.30;100339.31;4975559;28;20061;-75
2023/07/15 04:24:50;;;;;;;4.75;3.28;;;;;;;25.89;58.28;100342.53;4982834;28;20046;-75
2023/07/15 04:27:16;;;;;;;4.55;3.15;;;;;;;26.08;56.60;100338.97;4983508;28;20073;-74
2023/07/15 04:29:41;;;;;;;9.90;3.25;;;;;;;26.23;56.35;100343.38;4983521;28;20046;-74
2023/07/15 04:32:07;;;;;;;8.38;3.00;;;;;;;26.91;55.38;100337.56;4991074;28;20101;-76
2023/07/15 04:34:33;;;;;;;3.92;2.92;;;;;;;27.34;54.51;100330.44;4984384;28;20133;-75
2023/07/15 04:36:58;;;;;;;12.93;3.40;;;;;;;27.77;54.13;100340.72;4985360;28;20053;-75
2023/07/15 04:39:25;;;;;;;10.05;5.47;;;;;;;28.20;53.23;100334.44;4985332;28;20045;-76
2023/07/15 04:41:51;;;;;;;6.82;4.38;;;;;;;28.41;52.31;100333.22;4983566;28;20043;-76
2023/07/15 04:44:16;;;;;;;7.43;3.33;;;;;;;28.71;51.30;100333.31;4978732;28;20046;-75
2023/07/15 04:46:42;;;;;;;9.35;2.97;;;;;;;29.13;50.49;100327.97;4970522;28;20031;-75
2023/07/15 04:49:09;;;;;;;6.57;2.75;;;;;;;29.45;49.49;100334.06;4987006;28;20038;-75
2023/07/15 04:51:34;;;;;;;5.07;3.00;;;;;;;29.82;49.30;100339.44;4987209;28;20081;-75
2023/07/15 04:54:00;;;;;;;7.32;2.95;;;;;;;30.12;46.60;100331.09;4982337;28;20046;-75
2023/07/15 04:56:26;;;;;;;8.32;3.40;;;;;;;30.14;46.34;100342.75;4981714;28;20039;-76
2023/07/15 04:58:52;;;;;;;9.30;3.13;;;;;;;29.35;45.92;100337.38;4983921;28;21045;-75
2023/07/15 05:01:18;;;;;;;11.50;3.58;;;;;;;29.44;46.40;100346.13;4982115;28;20129;-76
2023/07/15 05:03:43;;;;;;;6.35;3.00;;;;;;;29.45;48.42;100338.72;4984885;28;20049;-75
2023/07/15 05:06:09;;;;;;;9.25;3.88;;;;;;;29.10;49.29;100350.41;4981398;28;20129;-75
2023/07/15 05:08:35;;;;;;;8.15;3.53;;;;;;;28.59;49.04;100355.19;4995305;28;20050;-75
2023/07/15 05:11:00;;;;;;;7.90;3.30;;;;;;;28.67;48.77;100348.56;4992656;28;20066;-75
2023/07/15 05:13:26;;;;;;;9.13;3.45;;;;;;;29.05;48.70;100353.00;4987850;28;20601;-74
2023/07/15 05:15:52;;;;;;;9.05;3.10;;;;;;;29.34;48.77;100354.94;4988269;28;20034;-75
2023/07/15 05:18:17;;;;;;;5.47;3.42;;;;;;;28.79;47.57;100354.97;4988767;28;20047;-75
2023/07/15 05:20:43;;;;;;;5.80;3.28;;;;;;;28.81;50.00;100363.78;4976909;28;20337;-74
2023/07/15 05:23:09;;;;;;;6.72;3.03;;;;;;;28.46;48.76;100362.72;4991326;28;20110;-74
2023/07/15 05:25:34;;;;;;;8.95;4.05;;;;;;;27.67;51.92;100362.25;4982880;28;20254;-75
2023/07/15 05:28:00;;;;;;;9.82;3.63;;;;;;;27.75;50.76;100366.66;4984086;28;20043;-74
2023/07/15 05:30:25;;;;;;;8.90;3.75;;;;;;;27.88;51.10;100361.91;4981880;28;20805;-75
2023/07/15 05:32:51;;;;;;;14.57;4.07;;;;;;;28.33;49.54;100367.28;4980093;28;20046;-74
2023/07/15 05:35:17;;;;;;;11.32;3.72;;;;;;;28.19;50.13;100362.94;4997069;28;20046;-75
2023/07/15 05:37:43;;;;;;;14.50;4.63;;;;;;;28.44;50.03;100367.59;4984110;28;20114;-75
2023/07/15 05:40:09;;;;;;;11.25;3.65;;;;;;;28.30;50.68;100362.19;4998751;28;20042;-75
2023/07/15 05:42:45;;;;;;;12.63;3.25;;;;;;;28.69;49.92;100362.88;4996970;28;20074;-73
2023/07/15 05:45:12;;;;;;;12.40;3.08;;;;;;;29.26;48.24;100360.75;4992249;28;20046;-74
2023/07/15 05:47:39;;;;;;;7.22;3.40;;;;;;;29.52;48.67;100362.31;4979050;28;20049;-74
2023/07/15 05:50:06;;;;;;;10.13;3.63;;;;;;;29.97;47.22;100361.00;4985362;28;20301;-75
2023/07/15 05:52:32;;;;;;;7.28;3.38;;;;;;;29.94;46.57;100362.31;4981580;28;20030;-74
2023/07/15 05:54:58;;;;;;;4.95;2.92;;;;;;;30.02;46.29;100358.38;4993375;28;20145;-74
2023/07/15 05:57:23;;;;;;;9.93;4.03;;;;;;;30.21;47.24;100364.66;4987072;28;20038;-75
2023/07/15 05:59:49;;;;;;;4.15;3.15;;;;;;;30.00;46.28;100360.53;4984642;28;20868;-75
2023/07/15 06:02:15;;;;;;;5.50;3.20;;;;;;;29.99;46.59;100350.59;4984490;28;20074;-74
2023/07/15 06:04:40;;;;;;;7.72;3.30;;;;;;;30.17;45.83;100351.38;4985814;28;20101;-74
2023/07/15 06:07:06;;;;;;;3.63;2.90;;;;;;;29.66;46.22;100354.72;4982718;28;20086;-74
2023/07/15 06:09:31;;;;;;;6.40;3.40;;;;;;;29.89;46.76;100359.44;4983736;28;20239;-74
2023/07/15 06:11:57;;;;;;;5.82;2.95;;;;;;;29.43;46.78;100366.44;4991179;28;20037;-74
2023/07/15 06:14:22;;;;;;;8.25;3.63;;;;;;;29.58;46.79;100366.06;4995060;28;20038;-74
2023/07/15 06:16:48;;;;;;;5.97;3.08;;;;;;;29.39;47.19;100363.31;4987079;28;20043;-75
2023/07/15 06:19:14;;;;;;;6.78;3.00;;;;;;;29.77;48.08;100356.69;4980394;28;20038;-74
2023/07/15 06:21:43;;;;;;;6.32;2.65;;;;;;;29.94;47.73;100356.81;4989190;28;20785;-73
2023/07/15 06:24:09;;;;;;;6.40;3.15;;;;;;;29.24;47.51;100362.06;4985324;28;20117;-73
2023/07/15 06:26:34;;;;;;;5.70;3.13;;;;;;;29.80;47.09;100361.69;4988364;28;20030;-75
2023/07/15 06:29:00;;;;;;;4.38;2.88;;;;;;;29.38;48.54;100355.31;4974423;28;20113;-74
2023/07/15 06:31:26;;;;;;;5.00;3.30;;;;;;;29.52;48.29;100356.81;4986929;28;20042;-74
2023/07/15 06:33:52;;;;;;;6.20;3.30;;;;;;;29.59;48.86;100357.56;4986330;28;20107;-74
2023/07/15 06:36:19;;;;;;;8.48;3.15;;;;;;;29.66;48.71;100350.03;4989900;28;20110;-74
2023/07/15 06:38:44;;;;;;;7.32;2.72;;;;;;;30.01;49.19;100354.78;4984419;28;20039;-74
2023/07/15 06:41:10;;;;;;;3.95;2.72;;;;;;;30.21;49.22;100354.47;4989581;28;20031;-73
2023/07/15 06:43:35;;;;;;;7.97;3.13;;;;;;;29.60;49.67;100359.22;4991268;28;20069;-75
2023/07/15 06:46:01;;;;;;;5.82;2.67;;;;;;;30.01;50.61;100368.53;5005308;28;20042;-74
2023/07/15 06:48:27;;;;;;;4.85;2.78;;;;;;;29.90;50.42;100377.59;4992215;28;20110;-74
2023/07/15 06:50:53;;;;;;;7.47;2.50;;;;;;;29.63;51.56;100386.25;4993155;28;20074;-74
2023/07/15 06:53:18;;;;;;;7.88;3.13;;;;;;;29.61;53.23;100380.16;4994700;28;20038;-74
2023/07/15 06:55:44;;;;;;;6.07;2.70;;;;;;;29.47;53.83;100372.28;4990173;28;20030;-76
2023/07/15 06:58:09;;;;;;;9.48;3.10;;;;;;;28.80;54.64;100378.59;4997987;28;20034;-75
2023/07/15 07:00:35;;;;;;;3.83;2.40;;;;;;;29.32;55.79;100372.69;5001703;28;20034;-75
2023/07/15 07:03:01;;;;;;;8.43;2.60;;;;;;;29.36;55.14;100374.75;5011757;28;20042;-74
2023/07/15 07:05:26;;;;;;;5.10;2.35;;;;;;;29.63;54.91;100372.53;5000527;28;20133;-74
2023/07/15 07:07:53;;;;;;;4.38;2.28;;;;;;;29.30;55.94;100372.94;5003167;28;20558;-74
2023/07/15 07:10:18;;;;;;;2.40;2.20;;;;;;;29.26;55.19;100373.63;5006759;28;20027;-74
2023/07/15 07:12:44;;;;;;;6.20;2.45;;;;;;;28.80;56.20;100378.59;4998487;28;20031;-74
2023/07/15 07:15:13;;;;;;;5.05;2.70;;;;;;;28.45;57.37;100382.97;5004749;28;20050;-75
2023/07/15 07:17:39;;;;;;;7.70;2.45;;;;;;;28.85;57.55;100383.41;4991845;28;20042;-74
2023/07/15 07:20:05;;;;;;;11.75;3.05;;;;;;;29.27;57.19;100383.53;5002267;28;20074;-75
2023/07/15 07:22:31;;;;;;;7.63;2.97;;;;;;;29.39;54.38;100387.22;5001640;28;20314;-74
2023/07/15 07:24:58;;;;;;;6.28;2.70;;;;;;;29.58;55.62;100388.88;5000847;28;20031;-75
2023/07/15 07:27:23;;;;;;;5.72;2.70;;;;;;;29.45;54.32;100377.19;4993222;28;20071;-74
2023/07/15 07:29:49;;;;;;;4.95;2.92;;;;;;;29.96;51.02;100373.91;4998721;28;20100;-74
2023/07/15 07:32:15;;;;;;;3.67;2.95;;;;;;;29.55;51.88;100380.25;4999378;28;20068;-74
2023/07/15 07:34:40;;;;;;;5.07;2.63;;;;;;;29.90;52.05;100375.69;4996939;28;20480;-73
2023/07/15 07:37:06;;;;;;;7.53;2.58;;;;;;;29.52;52.22;100381.53;4997697;28;20070;-74
2023/07/15 07:39:32;;;;;;;6.15;4.40;;;;;;;29.52;52.73;100372.44;4989524;28;20540;-75
2023/07/15 07:41:57;;;;;;;5.50;2.58;;;;;;;29.74;52.18;100375.53;4993566;28;20042;-74
2023/07/15 07:44:23;;;;;;;4.43;2.85;;;;;;;29.54;53.51;100395.06;5006239;28;20046;-74
2023/07/15 07:46:49;;;;;;;9.50;2.42;;;;;;;29.16;52.63;100397.00;5006629;28;20039;-74
2023/07/15 07:49:15;;;;;;;5.53;2.67;;;;;;;28.89;53.75;100399.19;5004433;28;20034;-75
2023/07/15 07:51:40;;;;;;;4.75;3.40;;;;;;;28.84;53.24;100392.72;4988349;28;20547;-74
2023/07/15 07:54:06;;;;;;;8.48;2.92;;;;;;;29.09;51.49;100396.25;4997644;28;20050;-75
2023/07/15 07:56:32;;;;;;;6.15;2.95;;;;;;;29.62;51.96;100395.59;4996808;28;20121;-76
2023/07/15 07:58:59;;;;;;;6.38;3.47;;;;;;;29.99;52.55;100403.69;5004050;28;20315;-75
2023/07/15 08:01:25;;;;;;;8.13;3.20;;;;;;;29.23;50.77;100398.84;4988899;28;20038;-74
2023/07/15 08:03:51;;;;;;;12.50;2.80;;;;;;;30.15;49.81;100397.53;4997599;28;20053;-74
2023/07/15 08:06:17;;;;;;;5.68;2.70;;;;;;;29.82;50.97;100402.69;4997480;28;20079;-75
2023/07/15 08:08:43;;;;;;;7.53;2.88;;;;;;;30.34;50.43;100400.19;4991329;28;20471;-74
2023/07/15 08:11:08;;;;;;;5.07;2.63;;;;;;;29.62;52.08;100395.59;4994985;28;20042;-75
2023/07/15 08:13:34;;;;;;;4.65;3.03;;;;;;;29.30;52.93;100397.66;4993589;28;20039;-74
2023/07/15 08:16:00;;;;;;;6.30;2.10;;;;;;;28.73;53.85;100402.53;4987644;28;20070;-74
2023/07/15 08:18:25;;;;;;;6.57;2.63;;;;;;;28.56;55.98;100402.28;4985993;28;20869;-74
2023/07/15 08:20:51;;;;;;;7.75;3.05;;;;;;;28.55;56.30;100395.09;4997121;28;20966;-74
2023/07/15 08:23:17;;;;;;;4.90;2.50;;;;;;;28.04;57.08;100393.44;5004462;28;20043;-74
2023/07/15 08:25:43;;;;;;;5.15;2.38;;;;;;;28.77;57.35;100390.03;4993322;28;20089;-73
2023/07/15 08:28:09;;;;;;;4.05;2.50;;;;;;;29.50;56.46;100402.91;5000023;28;20039;-74
2023/07/15 08:30:36;;;;;;;3.88;2.17;;;;;;;29.35;55.65;100400.56;4982525;28;20054;-73
2023/07/15 08:33:05;;;;;;;9.05;2.45;;;;;;;29.44;55.43;100387.34;4994432;28;20039;-74
2023/07/15 08:35:32;;;;;;;6.07;2.40;;;;;;;29.20;56.54;100385.56;4988077;28;20179;-75
2023/07/15 08:37:58;;;;;;;2.78;2.10;;;;;;;29.54;55.99;100397.81;5000618;28;20161;-73
2023/07/15 08:40:27;;;;;;;5.70;2.58;;;;;;;29.94;55.87;100411.81;4988933;28;20030;-75
2023/07/15 08:42:55;;;;;;;5.50;2.45;;;;;;;30.29;55.53;100408.31;4979889;28;20043;-73
2023/07/15 08:45:24;;;;;;;5.53;1.90;;;;;;;30.16;56.27;100404.69;4974571;28;20544;-74
2023/07/15 08:47:50;;;;;;;10.15;2.35;;;;;;;30.67;55.23;100405.09;4983864;28;20038;-73
2023/07/15 08:50:17;;;;;;;2.92;2.30;;;;;;;30.76;54.83;100405.59;4989746;28;20066;-73
2023/07/15 08:52:44;;;;;;;6.13;2.45;;;;;;;31.32;54.25;100407.66;4977644;28;20035;-74
2023/07/15 08:55:11;;;;;;;5.65;2.22;;;;;;;31.21;53.12;100409.34;4992134;28;20030;-73
2023/07/15 08:57:37;;;;;;;2.88;2.17;;;;;;;31.39;53.30;100408.38;4989413;28;20041;-74
2023/07/15 09:00:11;;;;;;;4.55;2.17;;;;;;;30.95;52.73;100429.16;4980536;28;20046;-75
2023/07/15 09:02:37;;;;;;;8.77;2.45;;;;;;;30.71;52.20;100417.31;4981893;28;20117;-73
2023/07/15 09:05:08;;;;;;;3.67;2.38;;;;;;;30.50;52.75;100423.41;4979295;28;20063;-74
2023/07/15 09:07:48;;;;;;;4.05;2.50;;;;;;;30.40;54.13;100422.09;4973187;28;20083;-74
2023/07/15 09:10:14;;;;;;;5.55;1.70;;;;;;;30.20;53.68;100429.00;4987907;28;20039;-73
2023/07/15 09:12:47;;;;;;;4.97;2.05;;;;;;;30.07;53.35;100421.75;4980920;28;20038;-74
2023/07/15 09:15:15;;;;;;;3.40;2.10;;;;;;;29.54;54.27;100433.53;4983628;28;20041;-74
2023/07/15 09:17:51;;;;;;;2.97;1.85;;;;;;;29.61;55.93;100451.59;4981542;28;20105;-74
2023/07/15 09:20:18;;;;;;;7.35;1.98;;;;;;;29.21;54.74;100448.50;4981454;28;20057;-73
2023/07/15 09:22:49;;;;;;;3.03;1.70;;;;;;;29.18;56.12;100457.19;4984198;28;20049;-73
2023/07/15 09:25:15;;;;;;;;;;;;;;;28.81;57.26;100461.78;4984328;28;20035;-74
2023/07/15 09:27:42;;;;;;;4.63;1.70;;;;;;;28.85;57.76;100460.25;4987529;28;19918;-72
2023/07/15 09:30:09;;;;;;;4.00;1.45;;;;;;;28.94;56.90;100458.94;4977676;28;20093;-73
2023/07/15 09:32:36;;;;;;;3.15;1.77;;;;;;;28.51;58.19;100462.47;4980264;28;20030;-73
2023/07/15 09:35:02;;;;;;;5.20;1.73;;;;;;;28.86;57.92;100481.16;4980883;28;20399;-74
2023/07/15 09:37:30;;;;;;;2.83;1.70;;;;;;;28.64;58.63;100478.84;4994616;28;20031;-73
2023/07/15 09:39:58;;;;;;;7.15;1.80;;;;;;;28.61;60.01;100479.25;4987089;28;20042;-73
2023/07/15 09:42:26;;;;;;;3.53;1.98;;;;;;;28.94;58.46;100496.50;4977673;28;20149;-73
2023/07/15 09:44:52;;;;;;;6.00;1.77;;;;;;;28.18;59.29;100487.41;4985310;28;20041;-74
2023/07/15 09:47:18;;;;;;;6.15;2.03;;;;;;;27.83;61.09;100500.69;4982210;28;20034;-73
2023/07/15 09:49:44;;;;;;;5.72;1.70;;;;;;;27.75;61.00;100504.50;4980498;28;20053;-73
2023/07/15 09:52:10;;;;;;;3.78;1.80;;;;;;;27.60;62.48;100487.47;5001339;28;20030;-73
2023/07/15 09:54:36;;;;;;;3.60;1.92;;;;;;;27.70;62.13;100473.31;4980060;28;20038;-73
2023/07/15 09:57:13;;;;;;;3.78;1.88;;;;;;;27.34;61.95;100463.78;4980013;28;20495;-74
2023/07/15 09:59:46;;;;;;;3.35;1.85;;;;;;;27.34;61.68;100475.56;4977636;28;20039;-73
2023/07/15 10:02:14;;;;;;;5.10;1.88;;;;;;;27.55;62.08;100479.06;4976571;28;20220;-72
2023/07/15 10:04:44;;;;;;;8.10;2.60;;;;;;;27.94;62.13;100460.78;4987334;28;20050;-73
2023/07/15 10:07:11;;;;;;;6.47;3.20;;;;;;;28.01;61.71;100450.59;4988242;28;20053;-74
2023/07/15 10:09:38;;;;;;;3.13;1.90;;;;;;;28.10;61.63;100460.25;4985381;28;20602;-73
2023/07/15 10:12:05;;;;;;;5.88;1.80;;;;;;;28.28;60.94;100471.28;4980816;28;20070;-74
2023/07/15 10:14:31;;;;;;;7.10;2.00;;;;;;;28.59;61.10;100483.31;4981716;28;20167;-73
2023/07/15 10:17:11;;;;;;;2.65;2.33;;;;;;;28.54;60.82;100475.75;4981158;28;20113;-73
2023/07/15 10:19:42;;;;;;;11.38;2.20;;;;;;;28.31;60.51;100472.72;4986146;28;20035;-74
2023/07/15 10:22:08;;;;;;;4.90;2.25;;;;;;;27.65;62.34;100482.19;4984760;28;20038;-73
2023/07/15 10:24:34;;;;;;;3.17;2.22;;;;;;;27.89;61.28;100483.38;4973428;28;20046;-74
2023/07/15 10:27:02;;;;;;;7.10;2.25;;;;;;;28.20;61.79;100481.69;4989228;28;20042;-73
2023/07/15 10:29:31;;;;;;;7.72;2.53;;;;;;;28.52;60.79;100477.06;4979997;28;20058;-73
2023/07/15 10:32:13;;;;;;;7.03;2.03;;;;;;;29.01;59.58;100478.91;4968935;28;20043;-74
2023/07/15 10:34:39;;;;;;;4.53;2.30;;;;;;;29.11;58.21;100476.47;4976481;28;20034;-73
2023/07/15 10:37:14;;;;;;;3.47;2.00;;;;;;;29.10;59.26;100479.47;4994684;28;20066;-74
2023/07/15 10:39:39;;;;;;;5.03;2.05;;;;;;;28.94;58.32;100491.88;4980424;28;20030;-73
2023/07/15 10:42:11;;;;;;;4.00;2.08;;;;;;;28.92;58.26;100477.53;4998206;28;21054;-73
2023/07/15 10:44:40;;;;;;;2.90;1.88;;;;;;;28.63;58.08;100471.66;4993355;28;20054;-73
2023/07/15 10:47:07;;;;;;;6.20;2.47;;;;;;;28.67;58.96;100463.84;4988155;28;21014;-73
2023/07/15 10:49:33;;;;;;;4.35;2.28;;;;;;;28.26;58.80;100462.44;5002842;28;20030;-73
2023/07/15 10:51:59;;;;;;;6.47;2.00;;;;;;;28.18;59.89;100470.09;4982574;28;20046;-72
2023/07/15 10:54:34;;;;;;;7.05;2.20;;;;;;;28.32;60.12;100461.56;4978686;28;20145;-73
2023/07/15 10:57:07;;;;;;;5.60;1.98;;;;;;;28.24;60.19;100461.00;4986767;28;20067;-74
2023/07/15 10:59:35;;;;;;;5.07;2.22;;;;;;;27.38;60.96;100442.28;4979225;28;20042;-73
2023/07/15 11:02:00;;;;;;;2.97;2.30;;;;;;;27.34;62.67;100448.19;4984991;28;20042;-74
2023/07/15 11:04:26;;;;;;;11.77;2.55;;;;;;;27.62;62.56;100444.28;4980937;28;20164;-73
2023/07/15 11:06:52;;;;;;;5.32;2.08;;;;;;;27.08;63.67;100457.34;5000280;28;20038;-73
2023/07/15 11:09:20;;;;;;;5.68;2.40;;;;;;;27.07;63.34;100461.13;4984944;28;20046;-73
2023/07/15 11:11:47;;;;;;;7.20;2.30;;;;;;;27.29;63.48;100469.91;4993529;28;21030;-73
2023/07/15 11:14:25;;;;;;;4.63;1.90;;;;;;;27.06;63.31;100461.28;4988316;28;20037;-73
2023/07/15 11:16:56;;;;;;;3.38;2.10;;;;;;;27.43;64.56;100453.44;4987057;28;20034;-73
2023/07/15 11:19:23;;;;;;;10.63;3.20;;;;;;;28.08;62.10;100452.25;4988558;28;20034;-73
2023/07/15 11:21:51;;;;;;;6.82;2.08;;;;;;;28.30;60.86;100457.34;4980022;28;20039;-73